Time;durP1;ratioP1;P1;durP2;ratioP2;P2;SDS_P1;SDS_P2;PMS_P1;PMS_P2;Temp;Humidity;BMP_temperature;BMP_pressure;BME280_temperature;BME280_humidity;BME280_pressure;Samples;Min_cycle;Max_cycle;Signal;HPM_P1;HPM_P2
2024/01/14 00:00:34;;;;;;;;;;;;;;;-6.75;91.79;92909.75;5061646;28;20885;-70
2024/01/14 00:03:00;;;;;;;;;;;;;;;-6.84;91.58;92903.75;5063037;28;20727;-71
2024/01/14 00:05:27;;;;;;;;;;;;;;;-6.90;91.43;92914.19;5064134;28;20452;-71
2024/01/14 00:07:55;;;;;;;;;;;;;;;-7.02;91.95;92913.34;5061828;28;20028;-70
2024/01/14 00:10:22;;;;;;;;;;;;;;;-7.22;91.16;92912.28;5064553;28;19939;-71
2024/01/14 00:12:49;;;;;;;;;;;;;;;-7.22;91.74;92907.31;5063015;28;19924;-71
2024/01/14 00:15:17;;;;;;;;;;;;;;;-7.10;94.48;92916.41;5063299;28;19931;-70
2024/01/14 00:17:45;;;;;;;;;;;;;;;-7.04;94.84;92920.94;5062750;28;19924;-71
2024/01/14 00:20:12;;;;;;;;;;;;;;;-6.94;94.53;92915.31;5063724;28;19977;-70
2024/01/14 00:22:38;;;;;;;;;;;;;;;-6.85;94.25;92912.94;5063901;28;19920;-71
2024/01/14 00:25:07;;;;;;;;;;;;;;;-6.83;93.37;92917.81;5061298;28;20783;-71
2024/01/14 00:27:34;;;;;;;;;;;;;;;-6.78;93.07;92914.97;5062493;28;19925;-71
2024/01/14 00:30:00;;;;;;;;;;;;;;;-6.82;91.30;92918.63;5062920;28;20270;-71
2024/01/14 00:32:27;;;;;;;;;;;;;;;-6.82;90.75;92918.63;5063968;28;19930;-71
2024/01/14 00:34:53;;;;;;;;;;;;;;;-6.91;89.61;92925.09;5063068;28;19921;-71
2024/01/14 00:37:20;;;;;;;;;;;;;;;-6.96;90.56;92919.63;5062410;28;20610;-71
2024/01/14 00:39:47;;;;;;;;;;;;;;;-6.98;90.32;92920.50;5063435;28;19930;-71
2024/01/14 00:42:15;;;;;;;;;;;;;;;-7.03;90.55;92922.53;5062485;28;19927;-71
2024/01/14 00:44:42;;;;;;;;;;;;;;;-7.05;90.71;92921.88;5060153;28;19946;-71
2024/01/14 00:47:08;;;;;;;;;;;;;;;-7.11;89.52;92919.81;5062266;28;19930;-71
2024/01/14 00:49:35;;;;;;;;;;;;;;;-7.15;90.22;92914.25;5063501;28;19927;-70
2024/01/14 00:52:02;;;;;;;;;;;;;;;-7.17;90.27;92913.53;5062333;28;20068;-71
2024/01/14 00:54:29;;;;;;;;;;;;;;;-7.18;91.24;92906.19;5062546;28;20015;-71
2024/01/14 00:56:55;;;;;;;;;;;;;;;-7.15;91.81;92908.44;5061899;28;19925;-70
2024/01/14 00:59:23;;;;;;;;;;;;;;;-7.11;92.22;92908.13;5061950;28;19924;-70
2024/01/14 01:01:50;;;;;;;;;;;;;;;-7.09;91.83;92912.22;5060809;28;20399;-70
2024/01/14 01:04:16;;;;;;;;;;;;;;;-7.11;91.20;92909.81;5062950;28;20003;-70
2024/01/14 01:06:43;;;;;;;;;;;;;;;-7.15;91.13;92906.75;5061033;28;19920;-71
2024/01/14 01:09:10;;;;;;;;;;;;;;;-7.14;91.14;92900.06;5061074;28;19928;-71
2024/01/14 01:11:37;;;;;;;;;;;;;;;-7.11;90.38;92899.84;5059207;28;19928;-71
2024/01/14 01:14:04;;;;;;;;;;;;;;;-7.08;90.43;92893.84;5061271;28;19924;-71
2024/01/14 01:16:33;;;;;;;;;;;;;;;-7.07;90.79;92896.22;5059414;28;19958;-71
2024/01/14 01:19:00;;;;;;;;;;;;;;;-6.99;91.38;92885.69;5063511;28;20305;-71
2024/01/14 01:21:26;;;;;;;;;;;;;;;-6.96;91.22;92892.94;5062724;28;20633;-71
2024/01/14 01:23:53;;;;;;;;;;;;;;;-7.04;90.89;92892.72;5061019;28;19924;-71
2024/01/14 01:26:20;;;;;;;;;;;;;;;-7.06;89.79;92884.53;5062311;28;19920;-70
2024/01/14 01:28:46;;;;;;;;;;;;;;;-7.13;89.60;92881.69;5060810;28;20656;-71
2024/01/14 01:31:13;;;;;;;;;;;;;;;-7.15;90.01;92881.78;5059718;28;19930;-71
2024/01/14 01:33:41;;;;;;;;;;;;;;;-7.09;91.00;92882.25;5060326;28;19924;-71
2024/01/14 01:36:08;;;;;;;;;;;;;;;-7.11;89.53;92874.88;5060534;28;20007;-71
2024/01/14 01:38:35;;;;;;;;;;;;;;;-7.11;89.27;92883.16;5063397;28;20678;-71
2024/01/14 01:41:01;;;;;;;;;;;;;;;-7.15;89.13;92871.00;5062144;28;19932;-71
2024/01/14 01:43:28;;;;;;;;;;;;;;;-7.17;88.87;92867.84;5060539;28;19924;-70
2024/01/14 01:45:56;;;;;;;;;;;;;;;-7.23;88.02;92868.28;5059750;28;20010;-71
2024/01/14 01:48:23;;;;;;;;;;;;;;;-7.27;88.88;92862.72;5061908;28;19935;-71
2024/01/14 01:50:52;;;;;;;;;;;;;;;-7.25;89.01;92864.19;5063573;28;19924;-72
2024/01/14 01:53:19;;;;;;;;;;;;;;;-7.31;88.62;92863.84;5060465;28;19924;-71
2024/01/14 01:55:46;;;;;;;;;;;;;;;-7.28;89.63;92866.09;5060765;28;19975;-71
2024/01/14 01:58:13;;;;;;;;;;;;;;;-7.34;87.99;92864.84;5060516;28;19946;-71
2024/01/14 02:00:39;;;;;;;;;;;;;;;-7.41;88.48;92862.00;5061190;28;20273;-71
2024/01/14 02:03:07;;;;;;;;;;;;;;;-7.36;89.85;92850.91;5060848;28;19924;-71
2024/01/14 02:05:35;;;;;;;;;;;;;;;-7.41;89.34;92853.72;5061577;28;19924;-71
2024/01/14 02:08:03;;;;;;;;;;;;;;;-7.44;88.32;92848.94;5060679;28;20292;-71
2024/01/14 02:10:30;;;;;;;;;;;;;;;-7.43;88.66;92855.53;5061135;28;19931;-72
2024/01/14 02:12:57;;;;;;;;;;;;;;;-7.43;89.06;92850.53;5061203;28;19924;-72
2024/01/14 02:15:23;;;;;;;;;;;;;;;-7.43;89.49;92853.84;5063699;28;19924;-72
2024/01/14 02:17:50;;;;;;;;;;;;;;;-7.42;89.28;92847.94;5067480;28;20011;-72
2024/01/14 02:20:17;;;;;;;;;;;;;;;-7.43;88.80;92858.03;5064623;28;19924;-72
2024/01/14 02:22:46;;;;;;;;;;;;;;;-7.46;88.84;92851.53;5066415;28;19975;-71
2024/01/14 02:25:14;;;;;;;;;;;;;;;-7.61;88.26;92853.44;5067494;28;19930;-71
2024/01/14 02:27:41;;;;;;;;;;;;;;;-7.58;88.92;92852.44;5068156;28;19921;-71
2024/01/14 02:30:09;;;;;;;;;;;;;;;-7.54;89.54;92857.06;5067053;28;20925;-70
2024/01/14 02:32:37;;;;;;;;;;;;;;;-7.61;89.27;92845.94;5065539;28;19920;-70
2024/01/14 02:35:05;;;;;;;;;;;;;;;-7.63;89.11;92855.25;5064178;28;19922;-72
2024/01/14 02:37:31;;;;;;;;;;;;;;;-7.63;89.38;92859.44;5066609;28;19979;-72
2024/01/14 02:39:58;;;;;;;;;;;;;;;-7.63;88.82;92859.44;5068110;28;20321;-72
2024/01/14 02:42:26;;;;;;;;;;;;;;;-7.67;89.04;92858.88;5068134;28;19924;-72
2024/01/14 02:44:52;;;;;;;;;;;;;;;-7.65;89.19;92860.34;5066403;28;19924;-72
2024/01/14 02:47:19;;;;;;;;;;;;;;;-7.60;89.97;92851.75;5065090;28;20391;-72
2024/01/14 02:49:46;;;;;;;;;;;;;;;-7.61;89.14;92858.44;5066524;28;19924;-72
2024/01/14 02:52:13;;;;;;;;;;;;;;;-7.60;88.92;92857.53;5068023;28;20381;-72
2024/01/14 02:54:40;;;;;;;;;;;;;;;-7.60;87.90;92857.53;5067352;28;19928;-72
2024/01/14 02:57:06;;;;;;;;;;;;;;;-7.63;87.33;92856.94;5066243;28;19924;-71
2024/01/14 02:59:35;;;;;;;;;;;;;;;-7.68;88.85;92852.28;5066739;28;19920;-71
2024/01/14 03:02:01;;;;;;;;;;;;;;;-7.65;89.19;92857.84;5063544;28;19927;-71
2024/01/14 03:04:28;;;;;;;;;;;;;;;-7.61;89.34;92850.94;5063890;28;20737;-71
2024/01/14 03:06:55;;;;;;;;;;;;;;;-7.64;88.38;92848.69;5066585;28;19920;-71
2024/01/14 03:09:22;;;;;;;;;;;;;;;-7.63;88.30;92844.47;5064770;28;19928;-70
2024/01/14 03:11:48;;;;;;;;;;;;;;;-7.64;88.31;92848.69;5066644;28;19927;-71
2024/01/14 03:14:15;;;;;;;;;;;;;;;-7.72;87.94;92846.72;5066565;28;19930;-70
2024/01/14 03:16:44;;;;;;;;;;;;;;;-7.71;87.87;92840.03;5060803;28;20015;-70
2024/01/14 03:19:11;;;;;;;;;;;;;;;-7.72;87.51;92838.44;5065661;28;19920;-71
2024/01/14 03:21:37;;;;;;;;;;;;;;;-7.79;88.27;92836.38;5058952;28;19928;-71
2024/01/14 03:24:05;;;;;;;;;;;;;;;-7.77;87.72;92843.75;5065737;28;19931;-71
2024/01/14 03:26:31;;;;;;;;;;;;;;;-7.74;88.55;92847.75;5067132;28;20328;-71
2024/01/14 03:28:58;;;;;;;;;;;;;;;-7.73;88.54;92844.34;5063303;28;20725;-71
2024/01/14 03:31:25;;;;;;;;;;;;;;;-7.72;88.76;92841.75;5065138;28;19926;-72
2024/01/14 03:33:53;;;;;;;;;;;;;;;-7.71;87.94;92837.53;5062032;28;19960;-71
2024/01/14 03:36:19;;;;;;;;;;;;;;;-7.76;86.69;92832.88;5066200;28;20281;-71
2024/01/14 03:38:46;;;;;;;;;;;;;;;-7.78;86.93;92828.00;5064916;28;19925;-71
2024/01/14 03:41:12;;;;;;;;;;;;;;;-7.84;86.55;92820.16;5066071;28;19934;-71
2024/01/14 03:43:39;;;;;;;;;;;;;;;-7.86;87.88;92824.44;5063067;28;19970;-71
2024/01/14 03:46:06;;;;;;;;;;;;;;;-7.89;86.67;92822.16;5064698;28;20309;-71
2024/01/14 03:48:33;;;;;;;;;;;;;;;-7.92;87.38;92823.19;5064447;28;20398;-71
2024/01/14 03:51:01;;;;;;;;;;;;;;;-7.93;87.98;92821.59;5065978;28;19924;-72
2024/01/14 03:53:27;;;;;;;;;;;;;;;-7.94;87.64;92828.28;5063864;28;19924;-71
2024/01/14 03:55:54;;;;;;;;;;;;;;;-7.94;87.22;92825.00;5067140;28;19964;-71
2024/01/14 03:58:21;;;;;;;;;;;;;;;-7.98;86.07;92826.09;5065622;28;20375;-71
2024/01/14 04:00:47;;;;;;;;;;;;;;;-8.07;86.51;92832.53;5061115;28;19920;-71
2024/01/14 04:03:14;;;;;;;;;;;;;;;-8.09;88.19;92830.16;5065586;28;19924;-71
2024/01/14 04:05:41;;;;;;;;;;;;;;;-8.10;88.22;92826.06;5060944;28;19924;-71
2024/01/14 04:08:09;;;;;;;;;;;;;;;-8.11;88.23;92836.94;5064696;28;19930;-71
2024/01/14 04:10:39;;;;;;;;;;;;;;;-8.09;88.54;92844.31;5063152;28;19924;-71
2024/01/14 04:13:05;;;;;;;;;;;;;;;-8.08;88.59;92848.38;5063363;28;19931;-71
2024/01/14 04:15:32;;;;;;;;;;;;;;;-8.01;88.83;92841.28;5064385;28;19924;-72
2024/01/14 04:17:59;;;;;;;;;;;;;;;-7.97;89.35;92840.19;5062819;28;19944;-71
2024/01/14 04:20:25;;;;;;;;;;;;;;;-7.98;88.37;92833.56;5062799;28;19924;-71
2024/01/14 04:22:52;;;;;;;;;;;;;;;-7.98;88.26;92831.09;5063510;28;19924;-70
2024/01/14 04:25:20;;;;;;;;;;;;;;;-7.98;87.87;92831.88;5062868;28;19928;-70
2024/01/14 04:27:46;;;;;;;;;;;;;;;-7.96;87.14;92831.78;5062544;28;19990;-71
2024/01/14 04:30:13;;;;;;;;;;;;;;;-8.01;86.97;92837.06;5061532;28;19930;-70
2024/01/14 04:32:40;;;;;;;;;;;;;;;-8.09;87.24;92836.81;5060082;28;20386;-71
2024/01/14 04:35:07;;;;;;;;;;;;;;;-8.11;87.81;92826.19;5062317;28;19931;-70
2024/01/14 04:37:33;;;;;;;;;;;;;;;-8.18;86.94;92829.06;5063541;28;19924;-71
2024/01/14 04:40:00;;;;;;;;;;;;;;;-8.19;88.29;92825.00;5065080;28;20293;-71
2024/01/14 04:42:28;;;;;;;;;;;;;;;-8.18;88.93;92824.09;5064911;28;19925;-71
2024/01/14 04:44:55;;;;;;;;;;;;;;;-8.15;88.67;92824.78;5062550;28;19920;-71
2024/01/14 04:47:21;;;;;;;;;;;;;;;-8.21;88.07;92826.00;5063390;28;19924;-71
2024/01/14 04:49:48;;;;;;;;;;;;;;;-8.36;88.70;92818.69;5062350;28;19927;-72
2024/01/14 04:52:14;;;;;;;;;;;;;;;-8.49;88.93;92813.75;5062283;28;20408;-72
2024/01/14 04:54:41;;;;;;;;;;;;;;;-8.47;90.94;92816.94;5062890;28;19924;-71
2024/01/14 04:57:08;;;;;;;;;;;;;;;-8.34;91.65;92816.09;5066029;28;19924;-71
2024/01/14 04:59:36;;;;;;;;;;;;;;;-8.32;90.94;92812.59;5061747;28;19920;-71
2024/01/14 05:02:02;;;;;;;;;;;;;;;-8.26;91.11;92818.03;5065131;28;19920;-71
2024/01/14 05:04:29;;;;;;;;;;;;;;;-8.20;90.41;92820.91;5061237;28;19924;-71
2024/01/14 05:06:56;;;;;;;;;;;;;;;-8.19;89.77;92814.25;5062526;28;19986;-71
2024/01/14 05:09:22;;;;;;;;;;;;;;;-8.23;89.03;92823.63;5062767;28;20251;-71
2024/01/14 05:11:49;;;;;;;;;;;;;;;-8.16;89.63;92821.50;5057729;28;19924;-71
2024/01/14 05:14:16;;;;;;;;;;;;;;;-8.13;88.31;92827.97;5060888;28;19920;-71
2024/01/14 05:16:44;;;;;;;;;;;;;;;-8.16;87.11;92821.50;5060091;28;19935;-72
2024/01/14 05:19:11;;;;;;;;;;;;;;;-8.20;87.82;92822.63;5060997;28;20423;-72
2024/01/14 05:21:37;;;;;;;;;;;;;;;-8.21;87.43;92823.50;5061384;28;19924;-72
2024/01/14 05:24:04;;;;;;;;;;;;;;;-8.19;88.24;92819.22;5062848;28;19926;-71
2024/01/14 05:26:31;;;;;;;;;;;;;;;-8.20;87.80;92812.66;5061265;28;19920;-71
2024/01/14 05:28:59;;;;;;;;;;;;;;;-8.24;87.46;92816.25;5060234;28;19924;-71
2024/01/14 05:31:26;;;;;;;;;;;;;;;-8.31;86.87;92820.88;5060642;28;19924;-71
2024/01/14 05:33:54;;;;;;;;;;;;;;;-8.28;88.10;92815.69;5062732;28;20011;-71
2024/01/14 05:36:20;;;;;;;;;;;;;;;-8.23;88.87;92812.88;5061339;28;19931;-71
2024/01/14 05:38:47;;;;;;;;;;;;;;;-8.23;88.84;92807.88;5062223;28;19925;-71
2024/01/14 05:41:14;;;;;;;;;;;;;;;-8.21;88.26;92814.34;5061555;28;20760;-71
2024/01/14 05:43:41;;;;;;;;;;;;;;;-8.20;88.38;92813.44;5056830;28;20347;-71
2024/01/14 05:46:07;;;;;;;;;;;;;;;-8.19;87.82;92806.78;5061178;28;20282;-71
2024/01/14 05:48:34;;;;;;;;;;;;;;;-8.18;87.85;92808.34;5060111;28;19926;-71
2024/01/14 05:51:02;;;;;;;;;;;;;;;-8.21;87.47;92811.06;5062050;28;19924;-70
2024/01/14 05:53:29;;;;;;;;;;;;;;;-8.18;87.50;92813.34;5063851;28;19924;-70
2024/01/14 05:55:57;;;;;;;;;;;;;;;-8.20;87.57;92810.16;5064649;28;19920;-70
2024/01/14 05:58:24;;;;;;;;;;;;;;;-8.19;87.51;92815.03;5064514;28;19931;-70
2024/01/14 06:00:51;;;;;;;;;;;;;;;-8.25;87.17;92804.72;5063873;28;19930;-70
2024/01/14 06:03:17;;;;;;;;;;;;;;;-8.24;86.71;92804.59;5063455;28;19928;-70
2024/01/14 06:05:44;;;;;;;;;;;;;;;-8.30;86.54;92805.00;5062699;28;19934;-71
2024/01/14 06:08:12;;;;;;;;;;;;;;;-8.29;87.22;92804.09;5063811;28;19931;-70
2024/01/14 06:10:39;;;;;;;;;;;;;;;-8.25;87.91;92805.50;5063144;28;19924;-70
2024/01/14 06:13:06;;;;;;;;;;;;;;;-8.26;86.99;92806.41;5062988;28;19931;-70
2024/01/14 06:15:33;;;;;;;;;;;;;;;-8.30;86.23;92804.22;5063286;28;20504;-70
2024/01/14 06:18:00;;;;;;;;;;;;;;;-8.28;87.56;92810.69;5062633;28;19930;-70
2024/01/14 06:20:26;;;;;;;;;;;;;;;-8.19;89.19;92814.25;5057996;28;19925;-70
2024/01/14 06:22:53;;;;;;;;;;;;;;;-8.15;88.58;92810.63;5055228;28;19955;-70
2024/01/14 06:25:21;;;;;;;;;;;;;;;-8.07;88.77;92810.91;5047352;28;20302;-70
2024/01/14 06:27:47;;;;;;;;;;;;;;;-8.00;88.94;92810.47;5048887;28;19929;-70
2024/01/14 06:30:15;;;;;;;;;;;;;;;-7.96;87.37;92809.34;5047693;28;19924;-71
2024/01/14 06:32:41;;;;;;;;;;;;;;;-7.97;87.27;92816.03;5050719;28;20532;-70
2024/01/14 06:35:09;;;;;;;;;;;;;;;-7.92;87.36;92813.22;5054814;28;20374;-70
2024/01/14 06:37:35;;;;;;;;;;;;;;;-7.84;87.46;92812.66;5050436;28;19924;-70
2024/01/14 06:40:02;;;;;;;;;;;;;;;-7.79;87.60;92810.63;5047534;28;20404;-70
2024/01/14 06:42:30;;;;;;;;;;;;;;;-7.69;88.13;92809.09;5051783;28;20403;-70
2024/01/14 06:44:57;;;;;;;;;;;;;;;-7.66;87.88;92810.56;5056159;28;19920;-70
2024/01/14 06:47:23;;;;;;;;;;;;;;;-7.59;87.94;92804.22;5052718;28;19931;-70
2024/01/14 06:49:52;;;;;;;;;;;;;;;-7.58;88.01;92797.56;5055822;28;19943;-70
2024/01/14 06:52:22;;;;;;;;;;;;;;;-7.48;89.06;92800.97;5053967;28;19921;-70
2024/01/14 06:54:48;;;;;;;;;;;;;;;-7.37;88.67;92805.16;5053540;28;19924;-71
2024/01/14 06:57:15;;;;;;;;;;;;;;;-7.45;89.57;92802.47;5052258;28;19947;-71
2024/01/14 06:59:44;;;;;;;;;;;;;;;-7.29;90.00;92805.44;5054277;28;19920;-70
2024/01/14 07:02:11;;;;;;;;;;;;;;;-7.21;90.48;92792.38;5050163;28;19928;-70
2024/01/14 07:04:37;;;;;;;;;;;;;;;-7.03;90.98;92787.72;5054003;28;19924;-70
2024/01/14 07:07:04;;;;;;;;;;;;;;;-6.90;90.81;92787.59;5054315;28;20287;-70
2024/01/14 07:09:33;;;;;;;;;;;;;;;-6.78;90.76;92785.09;5052717;28;19940;-70
2024/01/14 07:12:00;;;;;;;;;;;;;;;-6.72;91.30;92794.63;5056394;28;19995;-70
2024/01/14 07:14:26;;;;;;;;;;;;;;;-6.61;90.64;92782.13;5061343;28;20691;-70
2024/01/14 07:16:55;;;;;;;;;;;;;;;-6.62;90.13;92782.25;5050783;28;19920;-70
2024/01/14 07:19:21;;;;;;;;;;;;;;;-6.52;90.44;92774.84;5050361;28;20390;-70
2024/01/14 07:21:48;;;;;;;;;;;;;;;-6.36;90.04;92767.75;5049542;28;19920;-70
2024/01/14 07:24:14;;;;;;;;;;;;;;;-6.24;90.33;92768.53;5050981;28;19927;-70
2024/01/14 07:26:41;;;;;;;;;;;;;;;-6.11;88.79;92765.84;5056976;28;19971;-71
2024/01/14 07:29:08;;;;;;;;;;;;;;;-6.01;90.31;92765.91;5053936;28;19946;-70
2024/01/14 07:31:34;;;;;;;;;;;;;;;-5.90;91.49;92760.06;5050984;28;19920;-70
2024/01/14 07:34:02;;;;;;;;;;;;;;;-5.75;89.60;92760.53;5048451;28;20019;-71
2024/01/14 07:36:29;;;;;;;;;;;;;;;-5.63;88.82;92771.28;5055297;28;19930;-70
2024/01/14 07:38:58;;;;;;;;;;;;;;;-5.52;88.22;92770.41;5052650;28;19931;-70
2024/01/14 07:41:24;;;;;;;;;;;;;;;-5.42;88.89;92763.75;5059041;28;19920;-70
2024/01/14 07:43:51;;;;;;;;;;;;;;;-5.43;87.69;92762.19;5050610;28;19921;-70
2024/01/14 07:46:18;;;;;;;;;;;;;;;-5.54;88.71;92760.56;5057624;28;19920;-70
2024/01/14 07:48:45;;;;;;;;;;;;;;;-5.82;90.39;92756.94;5052620;28;19920;-70
2024/01/14 07:51:13;;;;;;;;;;;;;;;-5.98;89.93;92753.16;5050489;28;20321;-70
2024/01/14 07:53:40;;;;;;;;;;;;;;;-5.58;91.73;92751.69;5049366;28;19931;-71
2024/01/14 07:56:07;;;;;;;;;;;;;;;-5.56;89.48;92752.34;5049435;28;19925;-70
2024/01/14 07:58:34;;;;;;;;;;;;;;;-5.38;89.53;92749.28;5052237;28;19931;-70
2024/01/14 08:01:01;;;;;;;;;;;;;;;-5.63;90.51;92747.06;5051254;28;20305;-70
2024/01/14 08:03:27;;;;;;;;;;;;;;;-5.47;91.46;92747.53;5048539;28;20004;-70
2024/01/14 08:05:54;;;;;;;;;;;;;;;-5.55;90.81;92745.66;5052725;28;19931;-70
2024/01/14 08:08:23;;;;;;;;;;;;;;;-5.51;92.55;92750.28;5047753;28;19921;-70
2024/01/14 08:10:50;;;;;;;;;;;;;;;-5.65;94.81;92743.88;5052397;28;20366;-70
2024/01/14 08:13:16;;;;;;;;;;;;;;;-5.87;96.38;92741.50;5051009;28;20015;-70
2024/01/14 08:15:43;;;;;;;;;;;;;;;-5.74;97.59;92742.09;5048833;28;19936;-70
2024/01/14 08:18:10;;;;;;;;;;;;;;;-5.37;97.21;92726.63;5051864;28;19939;-70
2024/01/14 08:20:37;;;;;;;;;;;;;;;-5.26;96.56;92717.44;5048487;28;19999;-70
2024/01/14 08:23:29;;;;;;;;;;;;;;;-4.99;94.95;92719.38;5054858;28;19930;-70
2024/01/14 08:25:57;;;;;;;;;;;;;;;-4.75;94.01;92722.47;5049257;28;20010;-71
2024/01/14 08:28:24;;;;;;;;;;;;;;;-4.60;93.77;92716.19;5056571;28;19950;-70
2024/01/14 08:30:50;;;;;;;;;;;;;;;-4.49;93.58;92722.00;5050498;28;19921;-71
2024/01/14 08:33:17;;;;;;;;;;;;;;;-4.74;95.91;92711.53;5051179;28;20385;-70
2024/01/14 08:35:44;;;;;;;;;;;;;;;-4.86;98.64;92700.84;5046960;28;20378;-70
2024/01/14 08:38:11;;;;;;;;;;;;;;;-4.73;99.48;92701.38;5050456;28;19944;-70
2024/01/14 08:40:38;;;;;;;;;;;;;;;-4.53;97.12;92698.09;5054272;28;19924;-71
2024/01/14 08:43:06;;;;;;;;;;;;;;;-4.42;98.15;92692.97;5050904;28;20392;-71
2024/01/14 08:45:33;;;;;;;;;;;;;;;-4.42;97.98;92703.00;5051443;28;19925;-70
2024/01/14 08:47:59;;;;;;;;;;;;;;;-4.62;100.00;92703.00;5051019;28;20365;-70
2024/01/14 08:50:26;;;;;;;;;;;;;;;-4.68;100.00;92688.44;5050066;28;19925;-70
2024/01/14 08:52:53;;;;;;;;;;;;;;;-4.47;99.88;92688.34;5052062;28;19971;-71
2024/01/14 08:55:19;;;;;;;;;;;;;;;-4.21;100.00;92687.81;5061545;28;20816;-70
2024/01/14 08:57:46;;;;;;;;;;;;;;;-4.19;100.00;92698.50;5049713;28;19924;-70
2024/01/14 09:00:14;;;;;;;;;;;;;;;-4.23;100.00;92693.88;5056353;28;19947;-70
2024/01/14 09:02:41;;;;;;;;;;;;;;;-3.89;100.00;92701.78;5049130;28;19927;-70
2024/01/14 09:05:07;;;;;;;;;;;;;;;-3.97;100.00;92694.13;5050962;28;19924;-70
2024/01/14 09:07:34;;;;;;;;;;;;;;;-3.51;100.00;92691.78;5056376;28;20419;-71
2024/01/14 09:10:01;;;;;;;;;;;;;;;-3.43;100.00;92685.28;5049122;28;19931;-70
2024/01/14 09:12:27;;;;;;;;;;;;;;;-3.02;100.00;92683.25;5052741;28;19921;-70
2024/01/14 09:14:54;;;;;;;;;;;;;;;-3.03;100.00;92683.41;5051424;28;19921;-71
2024/01/14 09:17:22;;;;;;;;;;;;;;;-3.04;100.00;92674.28;5055132;28;20401;-71
2024/01/14 09:19:49;;;;;;;;;;;;;;;-2.87;100.00;92682.78;5052437;28;19931;-71
2024/01/14 09:22:15;;;;;;;;;;;;;;;-2.80;100.00;92671.25;5048524;28;20313;-71
2024/01/14 09:24:45;;;;;;;;;;;;;;;-2.83;100.00;92679.84;5057877;28;19925;-70
2024/01/14 09:27:12;;;;;;;;;;;;;;;-2.52;100.00;92682.97;5048500;28;19924;-71
2024/01/14 09:29:39;;;;;;;;;;;;;;;-2.64;100.00;92684.91;5051721;28;19920;-71
2024/01/14 09:32:07;;;;;;;;;;;;;;;-2.73;100.00;92679.00;5049271;28;19924;-70
2024/01/14 09:34:35;;;;;;;;;;;;;;;-2.64;100.00;92673.13;5049469;28;20015;-70
2024/01/14 09:37:02;;;;;;;;;;;;;;;-2.41;100.00;92660.09;5047663;28;19931;-70
2024/01/14 09:39:29;;;;;;;;;;;;;;;-2.35;99.73;92656.25;5051733;28;19930;-70
2024/01/14 09:42:04;;;;;;;;;;;;;;;-2.02;100.00;92659.81;5049444;28;19931;-70
2024/01/14 09:44:31;;;;;;;;;;;;;;;-1.68;99.56;92653.25;5049310;28;19936;-70
2024/01/14 09:46:59;;;;;;;;;;;;;;;-1.76;97.64;92664.06;5054775;28;19920;-70
2024/01/14 09:49:25;;;;;;;;;;;;;;;-1.91;99.17;92668.03;5050322;28;19924;-70
2024/01/14 09:51:55;;;;;;;;;;;;;;;-1.92;98.23;92666.47;5048699;28;19931;-70
2024/01/14 09:54:22;;;;;;;;;;;;;;;-2.05;99.12;92666.84;5048888;28;19920;-70
2024/01/14 09:56:49;;;;;;;;;;;;;;;-1.95;99.12;92666.78;5048371;28;20883;-71
2024/01/14 09:59:17;;;;;;;;;;;;;;;-1.86;99.58;92672.66;5048192;28;20023;-70
2024/01/14 10:01:44;;;;;;;;;;;;;;;-1.26;100.00;92661.00;5054517;28;20298;-70
2024/01/14 10:04:12;;;;;;;;;;;;;;;-0.88;98.90;92661.44;5054131;28;19951;-70
2024/01/14 10:06:43;;;;;;;;;;;;;;;-0.68;95.84;92668.75;5048630;28;19930;-70
2024/01/14 10:09:11;;;;;;;;;;;;;;;-0.58;94.15;92671.94;5049313;28;19951;-70
2024/01/14 10:11:38;;;;;;;;;;;;;;;-0.73;91.07;92679.31;5049472;28;20051;-71
2024/01/14 10:14:04;;;;;;;;;;;;;;;-0.52;91.93;92668.00;5051764;28;19920;-70
2024/01/14 10:16:32;;;;;;;;;;;;;;;-0.37;91.74;92662.34;5047954;28;19935;-71
2024/01/14 10:18:59;;;;;;;;;;;;;;;-0.40;91.19;92660.91;5051474;28;20292;-71
2024/01/14 10:21:27;;;;;;;;;;;;;;;0.06;92.62;92657.94;5049751;28;20003;-71
2024/01/14 10:23:55;;;;;;;;;;;;;;;0.16;89.74;92650.19;5049515;28;19925;-72
2024/01/14 10:26:23;;;;;;;;;;;;;;;0.39;88.63;92647.00;5050865;28;19930;-72
2024/01/14 10:28:50;;;;;;;;;;;;;;;0.55;87.40;92647.91;5047472;28;20493;-71
2024/01/14 10:31:17;;;;;;;;;;;;;;;0.37;86.24;92641.31;5053211;28;19931;-71
2024/01/14 10:33:45;;;;;;;;;;;;;;;0.57;87.68;92640.94;5048379;28;20398;-71
2024/01/14 10:36:13;;;;;;;;;;;;;;;0.51;84.85;92634.81;5051446;28;19930;-72
2024/01/14 10:38:39;;;;;;;;;;;;;;;0.45;85.89;92628.66;5053046;28;19931;-72
2024/01/14 10:41:06;;;;;;;;;;;;;;;0.33;86.28;92602.16;5053751;28;20220;-72
2024/01/14 10:43:36;;;;;;;;;;;;;;;0.26;84.63;92624.75;5052823;28;19931;-72
2024/01/14 10:46:03;;;;;;;;;;;;;;;0.61;85.47;92615.16;5051249;28;19952;-72
2024/01/14 10:48:36;;;;;;;;;;;;;;;0.83;85.24;92610.34;5052104;28;20444;-72
2024/01/14 10:51:05;;;;;;;;;;;;;;;0.91;82.82;92615.38;5055233;28;19972;-72
2024/01/14 10:53:37;;;;;;;;;;;;;;;0.93;81.72;92618.53;5055750;28;19924;-72
2024/01/14 10:56:05;;;;;;;;;;;;;;;1.21;83.16;92609.69;5056288;28;19924;-72
2024/01/14 10:58:37;;;;;;;;;;;;;;;1.27;80.12;92615.81;5053155;28;20046;-72
2024/01/14 11:01:07;;;;;;;;;;;;;;;1.55;80.61;92610.25;5053873;28;19921;-72
2024/01/14 11:03:34;;;;;;;;;;;;;;;1.57;80.23;92604.06;5051228;28;19930;-73
2024/01/14 11:06:02;;;;;;;;;;;;;;;1.64;80.25;92601.66;5054366;28;19947;-73
2024/01/14 11:08:29;;;;;;;;;;;;;;;1.94;81.69;92590.81;5056883;28;20111;-73
2024/01/14 11:10:56;;;;;;;;;;;;;;;2.12;77.64;92582.88;5053360;28;19924;-73
2024/01/14 11:13:25;;;;;;;;;;;;;;;2.26;77.91;92583.84;5052519;28;19924;-73
2024/01/14 11:16:04;;;;;;;;;;;;;;;2.12;77.12;92582.88;5061640;28;19920;-73
2024/01/14 11:18:33;;;;;;;;;;;;;;;2.20;76.23;92582.03;5056021;28;19930;-73
2024/01/14 11:21:02;;;;;;;;;;;;;;;2.23;75.89;92586.75;5061127;28;19931;-73
2024/01/14 11:23:31;;;;;;;;;;;;;;;2.22;76.71;92592.78;5050290;28;19970;-73
2024/01/14 11:25:58;;;;;;;;;;;;;;;2.27;75.94;92587.97;5051590;28;20003;-73
2024/01/14 11:28:25;;;;;;;;;;;;;;;2.53;75.74;92589.28;5050707;28;19924;-73
2024/01/14 11:30:53;;;;;;;;;;;;;;;2.66;76.41;92574.25;5050487;28;19927;-73
2024/01/14 11:33:39;;;;;;;;;;;;;;;2.67;73.69;92570.75;5049871;28;19967;-73
2024/01/14 11:36:07;;;;;;;;;;;;;;;2.77;74.89;92565.38;5054841;28;19921;-73
2024/01/14 11:38:33;;;;;;;;;;;;;;;2.96;75.37;92559.94;5057345;28;20286;-73
2024/01/14 11:41:00;;;;;;;;;;;;;;;3.13;73.64;92553.66;5051243;28;19924;-73
2024/01/14 11:43:28;;;;;;;;;;;;;;;3.23;72.03;92550.81;5052656;28;19921;-74
2024/01/14 11:45:55;;;;;;;;;;;;;;;3.38;68.49;92547.47;5050763;28;20398;-74
2024/01/14 11:48:24;;;;;;;;;;;;;;;3.58;65.21;92560.31;5057726;28;19931;-73
2024/01/14 11:50:52;;;;;;;;;;;;;;;3.70;65.38;92553.00;5050768;28;19933;-74
2024/01/14 11:53:18;;;;;;;;;;;;;;;3.84;65.07;92541.19;5051221;28;19925;-74
2024/01/14 11:55:46;;;;;;;;;;;;;;;3.87;63.57;92551.75;5051061;28;19924;-73
2024/01/14 11:58:14;;;;;;;;;;;;;;;4.02;59.95;92543.25;5049136;28;19928;-74
2024/01/14 12:00:41;;;;;;;;;;;;;;;4.08;59.75;92536.66;5054826;28;20302;-74
2024/01/14 12:03:08;;;;;;;;;;;;;;;4.26;59.70;92538.72;5050849;28;19921;-74
2024/01/14 12:05:35;;;;;;;;;;;;;;;4.50;59.88;92521.41;5055108;28;19924;-74
2024/01/14 12:08:03;;;;;;;;;;;;;;;4.63;56.33;92521.44;5050916;28;19963;-74
2024/01/14 12:10:32;;;;;;;;;;;;;;;4.73;57.39;92530.50;5048765;28;20030;-75
2024/01/14 12:12:59;;;;;;;;;;;;;;;4.76;56.55;92530.09;5050268;28;20382;-75
2024/01/14 12:15:25;;;;;;;;;;;;;;;4.89;55.51;92540.34;5051673;28;19921;-77
2024/01/14 12:17:56;;;;;;;;;;;;;;;4.93;55.96;92531.34;5052529;28;19930;-74
2024/01/14 12:20:22;;;;;;;;;;;;;;;4.97;54.86;92534.28;5054799;28;19921;-74
2024/01/14 12:22:55;;;;;;;;;;;;;;;4.94;54.51;92527.03;5051946;28;19927;-74
2024/01/14 12:25:25;;;;;;;;;;;;;;;5.04;54.34;92519.03;5056853;28;20297;-74
2024/01/14 12:27:51;;;;;;;;;;;;;;;5.08;54.46;92523.56;5059592;28;19931;-74
2024/01/14 12:30:25;;;;;;;;;;;;;;;5.13;56.21;92524.75;5055347;28;20362;-74
2024/01/14 12:32:52;;;;;;;;;;;;;;;5.12;56.06;92531.59;5055013;28;20392;-74
2024/01/14 12:35:18;;;;;;;;;;;;;;;5.21;56.82;92522.81;5052249;28;21399;-74
2024/01/14 12:37:45;;;;;;;;;;;;;;;5.28;56.25;92529.66;5049152;28;19921;-73
2024/01/14 12:40:12;;;;;;;;;;;;;;;5.18;56.08;92528.25;5052432;28;19975;-74
2024/01/14 12:42:40;;;;;;;;;;;;;;;5.07;55.04;92531.38;5051454;28;19920;-73
2024/01/14 12:45:06;;;;;;;;;;;;;;;5.01;55.84;92530.41;5050299;28;19931;-74
2024/01/14 12:47:33;;;;;;;;;;;;;;;4.99;55.47;92529.78;5049176;28;20301;-73